createdAt,value
2023-05-03T00:00:56.571Z,0
2023-05-03T00:02:36.490Z,0
2023-05-03T00:04:16.273Z,0
2023-05-03T00:05:55.977Z,0
2023-05-03T00:07:35.753Z,0
2023-05-03T00:09:15.368Z,0
2023-05-03T00:10:55.210Z,0
2023-05-03T00:12:35.136Z,0
2023-05-03T00:14:14.824Z,0
2023-05-03T00:15:54.618Z,0
2023-05-03T00:17:34.409Z,0
2023-05-03T00:19:14.002Z,0
2023-05-03T00:20:53.878Z,0
2023-05-03T00:22:33.636Z,0
2023-05-03T00:24:13.403Z,0
2023-05-03T00:25:53.115Z,0
2023-05-03T00:27:32.925Z,0
2023-05-03T00:29:12.696Z,0
2023-05-03T00:30:52.322Z,0
2023-05-03T00:32:32.169Z,0
2023-05-03T00:34:12.012Z,0
2023-05-03T00:35:51.763Z,0
2023-05-03T00:37:31.359Z,0
2023-05-03T00:39:11.238Z,0
2023-05-03T00:40:50.902Z,0
2023-05-03T00:42:30.639Z,0
2023-05-03T00:44:10.459Z,0
2023-05-03T00:45:50.182Z,0
2023-05-03T00:47:29.954Z,0
2023-05-03T00:49:09.810Z,0
2023-05-03T00:50:49.601Z,0
2023-05-03T00:52:29.403Z,0
2023-05-03T00:55:48.898Z,0
2023-05-03T00:57:28.726Z,0
2023-05-03T00:59:08.453Z,0
2023-05-03T01:00:48.056Z,0
2023-05-03T01:02:27.818Z,0
2023-05-03T01:04:07.720Z,0
2023-05-03T01:05:47.445Z,0
2023-05-03T01:07:27.164Z,0
2023-05-03T01:09:07.020Z,0
2023-05-03T01:10:46.647Z,0
2023-05-03T01:12:26.461Z,0
2023-05-03T01:14:06.280Z,0
2023-05-03T01:15:46.047Z,0
2023-05-03T01:17:25.814Z,0
2023-05-03T01:19:05.562Z,0
2023-05-03T01:20:45.375Z,0
2023-05-03T01:22:24.970Z,0
2023-05-03T01:24:04.776Z,0
2023-05-03T01:25:44.640Z,0
2023-05-03T01:27:24.441Z,0
2023-05-03T01:29:04.137Z,0
2023-05-03T01:30:43.970Z,0
2023-05-03T01:32:23.676Z,0
2023-05-03T01:34:03.359Z,0
2023-05-03T01:35:43.101Z,0
2023-05-03T01:37:22.999Z,0
2023-05-03T01:39:02.629Z,0
2023-05-03T01:40:42.556Z,0
2023-05-03T01:44:01.972Z,0
2023-05-03T01:45:41.687Z,0
2023-05-03T01:47:21.914Z,0
2023-05-03T01:49:01.347Z,0
2023-05-03T01:50:40.995Z,0
2023-05-03T01:52:20.843Z,0
2023-05-03T01:54:00.490Z,0
2023-05-03T01:55:40.422Z,0
2023-05-03T01:57:20.171Z,0
2023-05-03T01:58:59.788Z,0
2023-05-03T02:00:39.677Z,0
2023-05-03T02:02:19.477Z,0
2023-05-03T02:03:59.107Z,0
2023-05-03T02:05:38.849Z,0
2023-05-03T02:07:18.603Z,0
2023-05-03T02:08:58.374Z,0
2023-05-03T02:10:38.121Z,0
2023-05-03T02:12:18.035Z,0
2023-05-03T02:13:57.746Z,0
2023-05-03T02:15:37.459Z,0
2023-05-03T02:17:17.219Z,0
2023-05-03T02:18:57.084Z,0
2023-05-03T02:20:36.840Z,0
2023-05-03T02:22:16.616Z,0
2023-05-03T02:23:56.469Z,0
2023-05-03T02:25:36.145Z,0
2023-05-03T02:27:15.857Z,0
2023-05-03T02:28:55.625Z,0
2023-05-03T02:30:35.466Z,0
2023-05-03T02:32:15.103Z,0
2023-05-03T02:33:54.982Z,0
2023-05-03T02:35:34.692Z,0
2023-05-03T02:37:14.412Z,0
2023-05-03T02:38:54.338Z,0
2023-05-03T02:40:33.975Z,0
2023-05-03T02:42:13.644Z,0
2023-05-03T02:43:53.557Z,0
2023-05-03T02:45:33.324Z,0
2023-05-03T02:47:12.993Z,0
2023-05-03T02:48:52.734Z,0
2023-05-03T02:50:32.525Z,0
2023-05-03T02:52:12.354Z,0
2023-05-03T02:53:52.190Z,0
2023-05-03T02:55:31.803Z,0
2023-05-03T02:57:11.655Z,0
2023-05-03T02:58:51.364Z,0
2023-05-03T03:00:31.205Z,0
2023-05-03T03:02:10.841Z,0
2023-05-03T03:03:50.581Z,0
2023-05-03T03:05:30.387Z,0
2023-05-03T03:07:10.105Z,0
2023-05-03T03:08:49.965Z,0
2023-05-03T03:10:29.730Z,0
2023-05-03T03:12:09.513Z,0
2023-05-03T03:13:49.187Z,0
2023-05-03T03:15:28.925Z,0
2023-05-03T03:17:08.777Z,0
2023-05-03T03:18:48.472Z,0
2023-05-03T03:20:28.267Z,0
2023-05-03T03:22:08.081Z,0
2023-05-03T03:23:47.816Z,0
2023-05-03T03:25:27.573Z,0
2023-05-03T03:27:07.338Z,0
2023-05-03T03:28:47.084Z,0
2023-05-03T03:30:26.956Z,0
2023-05-03T03:32:06.603Z,0
2023-05-03T03:33:46.524Z,0
2023-05-03T03:35:26.163Z,0
2023-05-03T03:37:05.859Z,0
2023-05-03T03:38:45.634Z,0
2023-05-03T03:40:25.432Z,0
2023-05-03T03:42:05.145Z,0
2023-05-03T03:43:44.895Z,0
2023-05-03T03:45:24.679Z,0
2023-05-03T03:47:04.482Z,0.12
2023-05-03T03:48:44.270Z,0.12
2023-05-03T03:50:24.012Z,0.25
2023-05-03T03:52:03.913Z,0.12
2023-05-03T03:53:43.656Z,0.12
2023-05-03T03:55:23.245Z,0.12
2023-05-03T03:57:03.123Z,0.12
2023-05-03T03:58:42.782Z,0.12
2023-05-03T04:00:22.590Z,0.25
2023-05-03T04:02:02.359Z,0.25
2023-05-03T04:03:42.195Z,0.25
2023-05-03T04:05:21.839Z,0.25
2023-05-03T04:07:01.715Z,0.38
2023-05-03T04:08:41.373Z,0.38
2023-05-03T04:10:21.211Z,0.38
2023-05-03T04:12:00.932Z,0.51
2023-05-03T04:13:40.683Z,0.51
2023-05-03T04:15:20.496Z,0.51
2023-05-03T04:17:00.343Z,0.64
2023-05-03T04:18:40.086Z,0.64
2023-05-03T04:20:19.817Z,0.64
2023-05-03T04:23:39.275Z,0.77
2023-05-03T04:25:19.130Z,0.77
2023-05-03T04:26:58.904Z,0.77
2023-05-03T04:28:38.709Z,0.78
2023-05-03T04:30:18.287Z,0.78
2023-05-03T04:31:58.149Z,0.91
2023-05-03T04:33:37.843Z,1.04
2023-05-03T04:35:17.617Z,0.91
2023-05-03T04:36:57.361Z,0.91
2023-05-03T04:38:37.172Z,0.91
2023-05-03T04:40:16.978Z,1.04
2023-05-03T04:41:56.755Z,1.04
2023-05-03T04:43:36.483Z,1.04
2023-05-03T04:45:16.169Z,0.92
2023-05-03T04:46:55.928Z,1.19
2023-05-03T04:48:35.704Z,1.19
2023-05-03T04:50:15.474Z,1.46
2023-05-03T04:51:55.233Z,1.2
2023-05-03T04:53:35.133Z,1.33
2023-05-03T04:55:14.833Z,1.2
2023-05-03T04:56:54.533Z,1.34
2023-05-03T04:58:34.433Z,1.34
2023-05-03T05:00:14.142Z,1.07
2023-05-03T05:01:53.809Z,1.21
2023-05-03T05:03:33.575Z,1.21
2023-05-03T05:05:13.457Z,1.22
2023-05-03T05:06:53.174Z,1.35
2023-05-03T05:08:32.938Z,1.49
2023-05-03T05:10:12.769Z,1.5
2023-05-03T05:11:52.384Z,1.5
2023-05-03T05:13:32.234Z,1.5
2023-05-03T05:15:12.031Z,1.78
2023-05-03T05:16:51.714Z,1.51
2023-05-03T05:18:31.437Z,1.24
2023-05-03T05:20:11.412Z,1.51
2023-05-03T05:21:51.102Z,1.51
2023-05-03T05:23:30.952Z,1.65
2023-05-03T05:25:10.498Z,1.8
2023-05-03T05:26:50.287Z,1.66
2023-05-03T05:28:30.029Z,1.52
2023-05-03T05:30:09.972Z,1.38
2023-05-03T05:31:49.732Z,1.66
2023-05-03T05:33:29.492Z,1.67
2023-05-03T05:35:09.238Z,2.08
2023-05-03T05:36:49.019Z,2.08
2023-05-03T05:38:28.691Z,1.81
2023-05-03T05:40:08.499Z,0.41
2023-05-03T05:41:48.255Z,1.95
2023-05-03T05:43:27.901Z,2.08
2023-05-03T05:45:07.662Z,1.95
2023-05-03T05:46:47.538Z,1.68
2023-05-03T05:48:27.291Z,2.23
2023-05-03T05:50:06.964Z,3.24
2023-05-03T05:51:46.733Z,2.24
2023-05-03T05:53:26.566Z,2.24
2023-05-03T05:55:06.391Z,2.24
2023-05-03T05:56:46.017Z,1.68
2023-05-03T05:58:25.772Z,1.96
2023-05-03T06:00:05.663Z,2.39
2023-05-03T06:01:45.338Z,2.25
2023-05-03T06:03:25.204Z,2.39
2023-05-03T06:05:04.890Z,2.24
2023-05-03T06:06:44.649Z,2.25
2023-05-03T06:08:24.439Z,2.25
2023-05-03T06:10:04.131Z,1.97
2023-05-03T06:11:43.911Z,1.83
2023-05-03T06:13:23.777Z,2.25
2023-05-03T06:15:03.424Z,2.25
2023-05-03T06:16:43.180Z,2.1
2023-05-03T06:18:22.960Z,2.25
2023-05-03T06:20:02.799Z,2.25
2023-05-03T06:21:42.508Z,2.68
2023-05-03T06:23:22.329Z,2.1
2023-05-03T06:25:02.173Z,2.4
2023-05-03T06:26:41.808Z,2.4
2023-05-03T06:28:21.620Z,2.4
2023-05-03T06:30:01.442Z,2.4
2023-05-03T06:31:41.122Z,2.69
2023-05-03T06:33:20.828Z,2.55
2023-05-03T06:35:00.742Z,2.84
2023-05-03T06:36:40.396Z,2.55
2023-05-03T06:38:20.125Z,2.55
2023-05-03T06:39:59.891Z,2.84
2023-05-03T06:41:39.789Z,2.7
2023-05-03T06:43:19.397Z,2.84
2023-05-03T06:44:59.179Z,2.42
2023-05-03T06:46:39.006Z,3
2023-05-03T06:48:18.694Z,3.14
2023-05-03T06:49:58.558Z,6.6
2023-05-03T06:51:38.333Z,5.33
2023-05-03T06:53:17.982Z,5.33
2023-05-03T06:54:57.830Z,5.31
2023-05-03T06:56:37.515Z,5.15
2023-05-03T06:58:17.411Z,5.14
2023-05-03T06:59:57.188Z,4.98
2023-05-03T07:01:36.914Z,4.98
2023-05-03T07:03:16.662Z,4.84
2023-05-03T07:04:56.398Z,4.84
2023-05-03T07:06:36.196Z,4.84
2023-05-03T07:08:16.014Z,4.85
2023-05-03T07:09:55.736Z,4.85
2023-05-03T07:11:35.384Z,4.85
2023-05-03T07:13:15.334Z,4.84
2023-05-03T07:14:54.998Z,4.69
2023-05-03T07:16:34.685Z,4.85
2023-05-03T07:18:14.562Z,5.01
2023-05-03T07:19:54.280Z,4.86
2023-05-03T07:21:34.127Z,4.71
2023-05-03T07:23:13.941Z,4.86
2023-05-03T07:24:53.495Z,4.86
2023-05-03T07:26:33.308Z,4.39
2023-05-03T07:28:13.193Z,4.39
2023-05-03T07:29:52.917Z,4.4
2023-05-03T07:31:32.668Z,4.4
2023-05-03T07:33:12.470Z,4.4
2023-05-03T07:34:52.119Z,4.39
2023-05-03T07:36:31.854Z,4.4
2023-05-03T07:38:11.597Z,4.4
2023-05-03T07:39:51.370Z,4.25
2023-05-03T07:41:31.300Z,4.41
2023-05-03T07:43:11.010Z,4.41
2023-05-03T07:44:50.676Z,4.42
2023-05-03T07:46:30.584Z,4.09
2023-05-03T07:48:10.197Z,4.1
2023-05-03T07:49:50.062Z,4.09
2023-05-03T07:51:29.729Z,4.09
2023-05-03T07:53:09.566Z,4.1
2023-05-03T07:54:49.270Z,4.1
2023-05-03T07:56:29.194Z,3.95
2023-05-03T07:58:08.880Z,3.94
2023-05-03T07:59:48.607Z,3.95
2023-05-03T08:01:28.319Z,3.81
2023-05-03T08:03:08.056Z,3.96
2023-05-03T08:04:47.898Z,3.97
2023-05-03T08:06:27.598Z,3.97
2023-05-03T08:08:07.352Z,3.8
2023-05-03T08:09:47.115Z,3.66
2023-05-03T08:11:27.080Z,3.65
2023-05-03T08:13:06.729Z,3.51
2023-05-03T08:14:46.533Z,3.8
2023-05-03T08:16:26.212Z,3.95
2023-05-03T08:18:05.962Z,3.68
2023-05-03T08:19:45.715Z,3.64
2023-05-03T08:21:25.673Z,3.51
2023-05-03T08:23:05.428Z,3.51
2023-05-03T08:24:45.001Z,3.51
2023-05-03T08:26:24.924Z,3.36
2023-05-03T08:28:04.769Z,3.36
2023-05-03T08:29:44.345Z,3.36
2023-05-03T08:31:24.150Z,3.37
2023-05-03T08:33:03.913Z,3.38
2023-05-03T08:34:43.591Z,3.2
2023-05-03T08:36:23.543Z,3.23
2023-05-03T08:38:03.112Z,3.06
2023-05-03T08:39:42.887Z,3.06
2023-05-03T08:41:22.787Z,3.06
2023-05-03T08:43:02.404Z,3.06
2023-05-03T08:44:42.169Z,3.07
2023-05-03T08:46:21.932Z,3.07
2023-05-03T08:48:01.795Z,3.08
2023-05-03T08:49:41.637Z,3.23
2023-05-03T08:51:21.234Z,0.28
2023-05-03T08:53:01.098Z,0.42
2023-05-03T08:54:40.812Z,0.41
2023-05-03T08:56:20.706Z,2.36
2023-05-03T08:58:00.302Z,2.24
2023-05-03T08:59:40.179Z,2.39
2023-05-03T09:01:19.800Z,2.39
2023-05-03T09:02:59.719Z,2.1
2023-05-03T09:04:39.394Z,1.83
2023-05-03T09:06:19.096Z,1.54
2023-05-03T09:07:58.918Z,1.82
2023-05-03T09:09:38.799Z,1.82
2023-05-03T09:11:18.387Z,1.96
2023-05-03T09:12:58.200Z,1.97
2023-05-03T09:14:37.924Z,1.83
2023-05-03T09:16:17.816Z,1.96
2023-05-03T09:17:57.589Z,1.97
2023-05-03T09:19:37.361Z,1.97
2023-05-03T09:21:17.024Z,1.82
2023-05-03T09:22:56.788Z,1.82
2023-05-03T09:24:36.585Z,1.82
2023-05-03T09:26:16.335Z,1.82
2023-05-03T09:27:56.112Z,1.96
2023-05-03T09:31:15.550Z,1.82
2023-05-03T09:32:55.371Z,1.96
2023-05-03T09:34:35.089Z,1.82
2023-05-03T09:36:14.950Z,1.82
2023-05-03T09:37:54.691Z,1.82
2023-05-03T09:39:34.494Z,1.82
2023-05-03T09:42:54.138Z,1.96
2023-05-03T09:44:33.748Z,1.97
2023-05-03T09:46:13.499Z,1.97
2023-05-03T09:47:53.192Z,1.82
2023-05-03T09:49:33.144Z,1.68
2023-05-03T09:51:12.807Z,1.82
2023-05-03T09:52:52.705Z,1.82
2023-05-03T09:54:32.415Z,1.82
2023-05-03T09:56:12.128Z,1.4
2023-05-03T09:57:51.916Z,1.68
2023-05-03T09:59:31.727Z,1.82
2023-05-03T10:01:11.493Z,1.82
2023-05-03T10:02:51.207Z,1.82
2023-05-03T10:04:30.854Z,1.54
2023-05-03T10:06:10.757Z,1.53
2023-05-03T10:07:50.455Z,1.96
2023-05-03T10:09:30.264Z,1.97
2023-05-03T10:11:09.952Z,1.68
2023-05-03T10:12:49.796Z,1.68
2023-05-03T10:14:29.402Z,1.67
2023-05-03T10:16:09.176Z,1.82
2023-05-03T10:17:49.185Z,1.68
2023-05-03T10:19:28.863Z,1.68
2023-05-03T10:21:08.458Z,1.67
2023-05-03T10:22:48.233Z,1.67
2023-05-03T10:24:28.005Z,1.53
2023-05-03T10:26:07.782Z,1.53
2023-05-03T10:27:47.622Z,1.67
2023-05-03T10:29:27.291Z,1.67
2023-05-03T10:31:07.137Z,1.25
2023-05-03T10:32:46.814Z,1.81
2023-05-03T10:34:26.702Z,1.82
2023-05-03T10:36:06.381Z,1.68
2023-05-03T10:37:46.100Z,1.68
2023-05-03T10:39:25.888Z,1.68
2023-05-03T10:41:05.626Z,1.68
2023-05-03T10:42:45.581Z,1.68
2023-05-03T10:44:25.261Z,1.67
2023-05-03T10:46:04.924Z,1.53
2023-05-03T10:49:24.507Z,1.53
2023-05-03T10:51:04.256Z,1.67
2023-05-03T10:52:43.985Z,1.53
2023-05-03T10:54:23.855Z,1.53
2023-05-03T10:56:03.505Z,1.53
2023-05-03T10:57:43.357Z,1.39
2023-05-03T10:59:23.061Z,1.53
2023-05-03T11:01:02.804Z,1.67
2023-05-03T11:02:42.578Z,1.67
2023-05-03T11:04:22.419Z,1.54
2023-05-03T11:06:02.116Z,1.54
2023-05-03T11:07:41.951Z,1.25
2023-05-03T11:09:21.625Z,1.68
2023-05-03T11:11:01.377Z,1.39
2023-05-03T11:12:41.146Z,1.53
2023-05-03T11:14:21.004Z,1.53
2023-05-03T11:16:00.666Z,1.53
2023-05-03T11:17:40.496Z,1.39
2023-05-03T11:19:20.311Z,1.39
2023-05-03T11:20:59.973Z,1.68
2023-05-03T11:22:39.908Z,1.52
2023-05-03T11:24:19.669Z,1.53
2023-05-03T11:25:59.365Z,1.53
2023-05-03T11:27:39.204Z,1.54
2023-05-03T11:29:18.788Z,1.53
2023-05-03T11:30:58.548Z,1.39
2023-05-03T11:32:38.350Z,1.39
2023-05-03T11:34:18.074Z,1.53
2023-05-03T11:35:57.834Z,1.39
2023-05-03T11:37:37.659Z,1.53
2023-05-03T11:39:17.530Z,1.39
2023-05-03T11:40:57.315Z,1.39
2023-05-03T11:42:36.894Z,1.39
2023-05-03T11:44:16.650Z,1.53
2023-05-03T11:45:56.437Z,1.53
2023-05-03T11:47:36.176Z,1.39
2023-05-03T11:49:15.958Z,1.53
2023-05-03T11:50:55.730Z,1.39
2023-05-03T11:52:35.479Z,1.54
2023-05-03T11:54:15.256Z,1.39
2023-05-03T11:55:55.017Z,1.39
2023-05-03T11:57:34.785Z,1.39
2023-05-03T11:59:14.625Z,1.38
2023-05-03T12:00:54.332Z,1.39
2023-05-03T12:02:34.181Z,1.53
2023-05-03T12:04:13.832Z,1.39
2023-05-03T12:05:53.649Z,1.39
2023-05-03T12:07:33.492Z,1.25
2023-05-03T12:09:13.191Z,1.39
2023-05-03T12:10:52.898Z,1.39
2023-05-03T12:12:32.682Z,1.53
2023-05-03T12:14:12.515Z,1.39
2023-05-03T12:15:52.230Z,1.39
2023-05-03T12:17:31.945Z,1.39
2023-05-03T12:19:11.725Z,1.39
2023-05-03T12:20:51.620Z,1.38
2023-05-03T12:22:31.253Z,1.39
2023-05-03T12:24:11.036Z,1.39
2023-05-03T12:25:50.884Z,1.39
2023-05-03T12:27:30.630Z,1.39
2023-05-03T12:29:10.323Z,1.39
2023-05-03T12:30:50.070Z,1.39
2023-05-03T12:32:29.834Z,1.39
2023-05-03T12:34:09.591Z,1.38
2023-05-03T12:35:49.484Z,1.53
2023-05-03T12:37:29.226Z,1.24
2023-05-03T12:39:08.897Z,1.39
2023-05-03T12:40:48.708Z,1.38
2023-05-03T12:42:28.541Z,1.39
2023-05-03T12:44:08.169Z,1.39
2023-05-03T12:45:48.035Z,1.39
2023-05-03T12:47:27.717Z,1.39
2023-05-03T12:49:07.509Z,1.39
2023-05-03T12:50:47.248Z,1.38
2023-05-03T12:52:27.048Z,1.66
2023-05-03T12:54:06.768Z,1.25
2023-05-03T12:55:46.539Z,1.38
2023-05-03T12:57:26.355Z,1.53
2023-05-03T12:59:06.060Z,1.53
2023-05-03T13:00:45.834Z,1.52
2023-05-03T13:02:25.768Z,1.53
2023-05-03T13:04:05.391Z,1.39
2023-05-03T13:05:45.109Z,1.38
2023-05-03T13:07:24.884Z,1.38
2023-05-03T13:09:04.713Z,1.38
2023-05-03T13:10:44.535Z,1.38
2023-05-03T13:12:24.178Z,1.38
2023-05-03T13:14:03.994Z,1.38
2023-05-03T13:15:43.694Z,1.39
2023-05-03T13:17:23.576Z,1.4
2023-05-03T13:19:03.220Z,1.38
2023-05-03T13:20:42.992Z,1.53
2023-05-03T13:22:22.757Z,1.53
2023-05-03T13:24:02.592Z,1.25
2023-05-03T13:25:42.293Z,1.52
2023-05-03T13:27:22.096Z,1.4
2023-05-03T13:29:01.851Z,1.52
2023-05-03T13:30:41.559Z,1.39
2023-05-03T13:32:21.329Z,1.39
2023-05-03T13:34:01.232Z,1.39
2023-05-03T13:35:40.941Z,1.38
2023-05-03T13:37:20.628Z,1.53
2023-05-03T13:39:00.552Z,1.53
2023-05-03T13:40:40.232Z,1.39
2023-05-03T13:42:19.923Z,1.39
2023-05-03T13:43:59.739Z,1.24
2023-05-03T13:45:39.452Z,1.53
2023-05-03T13:47:19.324Z,1.38
2023-05-03T13:48:59.010Z,1.25
2023-05-03T13:50:38.736Z,1.39
2023-05-03T13:52:18.634Z,1.38
2023-05-03T13:53:58.354Z,1.53
2023-05-03T13:55:38.146Z,1.39
2023-05-03T13:57:17.922Z,1.38
2023-05-03T13:58:57.558Z,1.52
2023-05-03T14:00:37.442Z,1.24
2023-05-03T14:02:17.247Z,1.53
2023-05-03T14:05:36.667Z,1.39
2023-05-03T14:07:16.374Z,1.39
2023-05-03T14:08:56.161Z,1.39
2023-05-03T14:10:35.970Z,1.38
2023-05-03T14:12:15.690Z,1.37
2023-05-03T14:13:55.436Z,1.38
2023-05-03T14:15:35.271Z,1.52
2023-05-03T14:17:15.078Z,1.53
2023-05-03T14:18:54.748Z,1.39
2023-05-03T14:20:34.527Z,1.51
2023-05-03T14:22:14.330Z,1.25
2023-05-03T14:23:54.020Z,1.25
2023-05-03T14:25:33.798Z,1.52
2023-05-03T14:27:13.550Z,1.39
2023-05-03T14:28:53.313Z,1.39
2023-05-03T14:30:33.094Z,1.52
2023-05-03T14:32:12.845Z,1.53
2023-05-03T14:33:52.716Z,1.53
2023-05-03T14:35:32.377Z,1.51
2023-05-03T14:37:12.143Z,1.24
2023-05-03T14:40:31.658Z,1.52
2023-05-03T14:42:11.428Z,1.39
2023-05-03T14:43:51.196Z,1.38
2023-05-03T14:45:31.014Z,1.39
2023-05-03T14:47:10.760Z,1.25
2023-05-03T14:48:50.479Z,1.52
2023-05-03T14:50:30.264Z,1.53
2023-05-03T14:52:10.176Z,1.51
2023-05-03T14:53:49.786Z,1.25
2023-05-03T14:55:29.634Z,1.53
2023-05-03T14:57:09.308Z,1.67
2023-05-03T14:58:49.065Z,1.52
2023-05-03T15:00:28.844Z,1.39
2023-05-03T15:02:08.619Z,1.52
2023-05-03T15:03:48.364Z,1.39
2023-05-03T15:05:28.208Z,1.53
2023-05-03T15:07:07.919Z,1.53
2023-05-03T15:08:47.707Z,1.38
2023-05-03T15:10:27.505Z,1.38
2023-05-03T15:12:07.172Z,1.38
2023-05-03T15:13:46.955Z,1.38
2023-05-03T15:15:26.718Z,1.38
2023-05-03T15:17:06.485Z,1.53
2023-05-03T15:18:46.336Z,1.39
2023-05-03T15:20:26.057Z,1.38
2023-05-03T15:22:05.786Z,1.39
2023-05-03T15:23:45.594Z,1.39
2023-05-03T15:25:25.331Z,1.25
2023-05-03T15:27:05.069Z,1.38
2023-05-03T15:28:44.886Z,1.39
2023-05-03T15:30:24.647Z,1.53
2023-05-03T15:32:04.380Z,1.38
2023-05-03T15:33:44.148Z,1.25
2023-05-03T15:35:23.875Z,1.25
2023-05-03T15:37:03.646Z,1.38
2023-05-03T15:38:43.480Z,1.54
2023-05-03T15:40:23.183Z,1.39
2023-05-03T15:42:02.940Z,1.25
2023-05-03T15:43:42.732Z,1.4
2023-05-03T15:45:22.542Z,1.39
2023-05-03T15:47:02.220Z,1.25
2023-05-03T15:48:42.069Z,1.24
2023-05-03T15:50:21.775Z,1.25
2023-05-03T15:52:01.509Z,1.24
2023-05-03T15:53:41.281Z,1.39
2023-05-03T15:55:21.070Z,1.4
2023-05-03T15:57:00.818Z,1.38
2023-05-03T15:58:40.718Z,1.53
2023-05-03T16:00:20.472Z,1.25
2023-05-03T16:02:00.162Z,1.24
2023-05-03T16:03:40.032Z,1.24
2023-05-03T16:05:19.642Z,1.24
2023-05-03T16:06:59.422Z,1.4
2023-05-03T16:08:39.292Z,1.39
2023-05-03T16:10:19.018Z,1.4
2023-05-03T16:11:58.865Z,1.39
2023-05-03T16:13:38.448Z,1.25
2023-05-03T16:15:18.249Z,1.39
2023-05-03T16:16:57.975Z,1.11
2023-05-03T16:18:37.847Z,1.11
2023-05-03T16:20:17.512Z,1.4
2023-05-03T16:21:57.270Z,1.26
2023-05-03T16:23:37.242Z,1.25
2023-05-03T16:25:16.848Z,1.26
2023-05-03T16:26:56.672Z,1.25
2023-05-03T16:28:36.332Z,1.12
2023-05-03T16:30:16.087Z,1.25
2023-05-03T16:31:56.115Z,1.11
2023-05-03T16:33:35.661Z,1.25
2023-05-03T16:35:15.549Z,1.39
2023-05-03T16:36:55.195Z,1.4
2023-05-03T16:38:34.916Z,1.25
2023-05-03T16:40:14.689Z,1.39
2023-05-03T16:41:54.577Z,1.11
2023-05-03T16:43:34.210Z,1.11
2023-05-03T16:45:13.972Z,1.12
2023-05-03T16:46:53.853Z,1.25
2023-05-03T16:48:33.682Z,1.25
2023-05-03T16:50:13.286Z,1.24
2023-05-03T16:51:53.168Z,1.11
2023-05-03T16:53:32.791Z,1.25
2023-05-03T16:55:12.616Z,1.11
2023-05-03T16:56:52.542Z,1.25
2023-05-03T16:58:32.069Z,1.26
2023-05-03T17:00:11.837Z,1.26
2023-05-03T17:01:51.733Z,1.25
2023-05-03T17:03:31.401Z,1.26
2023-05-03T17:05:11.126Z,1.4
2023-05-03T17:06:51.117Z,1.26
2023-05-03T17:08:30.689Z,1.11
2023-05-03T17:10:10.422Z,1.26
2023-05-03T17:11:50.324Z,1.12
2023-05-03T17:13:30.031Z,1.4
2023-05-03T17:15:09.824Z,1.25
2023-05-03T17:16:49.471Z,1.12
2023-05-03T17:18:29.327Z,1.1
2023-05-03T17:20:09.092Z,1.11
2023-05-03T17:21:48.882Z,1.11
2023-05-03T17:23:28.551Z,1.12
2023-05-03T17:25:08.405Z,1.25
2023-05-03T17:26:48.065Z,1.12
2023-05-03T17:28:27.833Z,1.25
2023-05-03T17:30:07.654Z,0.98
2023-05-03T17:31:47.473Z,1.25
2023-05-03T17:33:27.144Z,1.11
2023-05-03T17:35:06.967Z,1.25
2023-05-03T17:36:46.678Z,1.26
2023-05-03T17:38:26.569Z,1.25
2023-05-03T17:40:06.276Z,1.12
2023-05-03T17:41:46.065Z,1.12
2023-05-03T17:45:05.622Z,1.25
2023-05-03T17:46:45.280Z,1.26
2023-05-03T17:48:25.080Z,1.11
2023-05-03T17:50:04.857Z,1.12
2023-05-03T17:51:44.621Z,1.25
2023-05-03T17:53:24.290Z,0.98
2023-05-03T17:55:04.183Z,1.12
2023-05-03T17:56:43.823Z,1.25
2023-05-03T17:58:23.573Z,0.98
2023-05-03T18:00:03.330Z,1.26
2023-05-03T18:01:43.114Z,1.12
2023-05-03T18:03:22.872Z,1.25
2023-05-03T18:05:02.864Z,0.98
2023-05-03T18:06:42.456Z,1.26
2023-05-03T18:08:22.241Z,1.26
2023-05-03T18:10:01.927Z,1.11
2023-05-03T18:11:41.828Z,1.12
2023-05-03T18:13:21.618Z,1.12
2023-05-03T18:15:01.437Z,1.12
2023-05-03T18:16:41.109Z,0.96
2023-05-03T18:18:20.905Z,0.67
2023-05-03T18:20:00.629Z,0.52
2023-05-03T18:21:40.429Z,0.39
2023-05-03T18:23:20.122Z,0.52
2023-05-03T18:24:59.967Z,0.39
2023-05-03T18:26:39.769Z,0.39
2023-05-03T18:28:19.483Z,0.39
2023-05-03T18:29:59.214Z,0.52
2023-05-03T18:31:39.034Z,0
2023-05-03T18:33:18.751Z,0
2023-05-03T18:34:58.567Z,0
2023-05-03T18:36:38.304Z,0
2023-05-03T18:38:17.899Z,0
2023-05-03T18:39:57.746Z,0
2023-05-03T18:41:37.683Z,0
2023-05-03T18:43:17.413Z,0
2023-05-03T18:44:57.116Z,0
2023-05-03T18:46:36.896Z,0
2023-05-03T18:48:16.643Z,0
2023-05-03T18:51:36.190Z,0
2023-05-03T18:53:15.937Z,0
2023-05-03T18:54:55.776Z,0
2023-05-03T18:56:35.427Z,0
2023-05-03T18:58:15.247Z,0
2023-05-03T18:59:55.020Z,0
2023-05-03T19:01:34.741Z,0
2023-05-03T19:03:14.549Z,0
2023-05-03T19:04:54.286Z,0
2023-05-03T19:06:34.050Z,0
2023-05-03T19:08:13.812Z,0
2023-05-03T19:09:53.550Z,0
2023-05-03T19:11:33.368Z,0
2023-05-03T19:13:13.109Z,0
2023-05-03T19:14:52.737Z,0
2023-05-03T19:16:32.555Z,0
2023-05-03T19:18:12.423Z,0
2023-05-03T19:19:52.142Z,0
2023-05-03T19:21:31.861Z,0
2023-05-03T19:24:51.326Z,0
2023-05-03T19:26:31.083Z,0
2023-05-03T19:28:10.827Z,0
2023-05-03T19:29:50.611Z,0
2023-05-03T19:31:30.364Z,0
2023-05-03T19:33:10.113Z,0
2023-05-03T19:34:49.895Z,0
2023-05-03T19:36:29.677Z,0
2023-05-03T19:39:49.169Z,0
2023-05-03T19:41:28.958Z,0
2023-05-03T19:43:08.699Z,0
2023-05-03T19:44:48.470Z,0
2023-05-03T19:46:28.252Z,0
2023-05-03T19:48:08.008Z,0
2023-05-03T19:49:47.748Z,0
2023-05-03T19:51:27.531Z,0
2023-05-03T19:53:07.305Z,0
2023-05-03T19:56:26.840Z,0
2023-05-03T19:58:06.589Z,0
2023-05-03T19:59:46.362Z,0
2023-05-03T20:01:26.109Z,0
2023-05-03T20:03:05.878Z,0
2023-05-03T20:04:45.704Z,0
2023-05-03T20:06:25.399Z,0
2023-05-03T20:08:05.180Z,0
2023-05-03T20:09:44.924Z,0
2023-05-03T20:11:24.690Z,0
2023-05-03T20:13:04.474Z,0
2023-05-03T20:14:44.217Z,0
2023-05-03T20:16:23.993Z,0
2023-05-03T20:18:03.745Z,0
2023-05-03T20:19:43.523Z,0
2023-05-03T20:21:23.293Z,0
2023-05-03T20:23:03.045Z,0
2023-05-03T20:26:22.662Z,0
2023-05-03T20:28:02.346Z,0
2023-05-03T20:29:42.113Z,0
2023-05-03T20:31:21.864Z,0
2023-05-03T20:33:01.687Z,0
2023-05-03T20:34:41.399Z,0
2023-05-03T20:36:21.160Z,0
2023-05-03T20:38:00.925Z,0
2023-05-03T20:39:40.677Z,0
2023-05-03T20:41:20.453Z,0
2023-05-03T20:43:00.198Z,0
2023-05-03T20:44:39.979Z,0
2023-05-03T20:46:19.747Z,0
2023-05-03T20:49:39.269Z,0
2023-05-03T20:51:19.046Z,0
2023-05-03T20:52:58.787Z,0
2023-05-03T20:54:38.573Z,0
2023-05-03T20:56:18.329Z,0
2023-05-03T20:59:37.848Z,0
2023-05-03T21:01:17.609Z,0
2023-05-03T21:02:57.378Z,0
2023-05-03T21:04:37.134Z,0
2023-05-03T21:06:16.896Z,0
2023-05-03T21:07:56.690Z,0
2023-05-03T21:09:36.440Z,0
2023-05-03T21:11:16.190Z,0
2023-05-03T21:12:55.949Z,0
2023-05-03T21:14:35.718Z,0
2023-05-03T21:16:15.494Z,0
2023-05-03T21:17:55.247Z,0
2023-05-03T21:19:35.032Z,0
2023-05-03T21:21:14.775Z,0
2023-05-03T21:22:54.542Z,0
2023-05-03T21:24:34.303Z,0
2023-05-03T21:26:14.088Z,0
2023-05-03T21:27:53.834Z,0
2023-05-03T21:29:33.634Z,0
2023-05-03T21:31:13.368Z,0
2023-05-03T21:32:53.113Z,0
2023-05-03T21:34:32.902Z,0
2023-05-03T21:37:52.503Z,0
2023-05-03T21:39:32.236Z,0
2023-05-03T21:41:11.945Z,0
2023-05-03T21:42:51.708Z,0
2023-05-03T21:44:31.465Z,0
2023-05-03T21:46:11.262Z,0
2023-05-03T21:47:51.022Z,0
2023-05-03T21:49:30.753Z,0
2023-05-03T21:51:10.526Z,0
2023-05-03T21:52:50.474Z,0
2023-05-03T21:54:30.051Z,0
2023-05-03T21:56:09.818Z,0
2023-05-03T21:57:49.564Z,0
2023-05-03T21:59:29.349Z,0
2023-05-03T22:01:09.103Z,0
2023-05-03T22:02:48.871Z,0
2023-05-03T22:04:28.638Z,0
2023-05-03T22:06:08.395Z,0
2023-05-03T22:07:48.167Z,0
2023-05-03T22:09:27.933Z,0
2023-05-03T22:11:07.692Z,0
2023-05-03T22:12:47.457Z,0
2023-05-03T22:14:27.220Z,0
2023-05-03T22:16:06.978Z,0
2023-05-03T22:19:26.527Z,0
2023-05-03T22:21:06.282Z,0
2023-05-03T22:22:46.049Z,0
2023-05-03T22:24:25.803Z,0
2023-05-03T22:26:05.552Z,0
2023-05-03T22:27:45.337Z,0
2023-05-03T22:29:25.099Z,0
2023-05-03T22:31:04.874Z,0
2023-05-03T22:32:44.631Z,0
2023-05-03T22:34:24.381Z,0
2023-05-03T22:36:04.147Z,0
2023-05-03T22:37:43.923Z,0
2023-05-03T22:39:23.684Z,0
2023-05-03T22:41:03.453Z,0
2023-05-03T22:42:43.208Z,0
2023-05-03T22:44:22.964Z,0
2023-05-03T22:46:02.737Z,0
2023-05-03T22:47:42.497Z,0
2023-05-03T22:49:22.259Z,0
2023-05-03T22:51:02.033Z,0
2023-05-03T22:52:41.821Z,0
2023-05-03T22:56:01.324Z,0
2023-05-03T22:57:41.080Z,0
2023-05-03T22:59:20.885Z,0
2023-05-03T23:01:00.618Z,0
2023-05-03T23:02:40.373Z,0
2023-05-03T23:05:59.882Z,0
2023-05-03T23:07:39.673Z,0
2023-05-03T23:09:19.439Z,0
2023-05-03T23:10:59.189Z,0
2023-05-03T23:12:38.958Z,0
2023-05-03T23:17:38.264Z,0
2023-05-03T23:19:18.093Z,0
2023-05-03T23:20:57.775Z,0
2023-05-03T23:22:37.554Z,0
2023-05-03T23:24:17.383Z,0
2023-05-03T23:25:57.061Z,0
2023-05-03T23:29:16.623Z,0
2023-05-03T23:30:56.354Z,0
2023-05-03T23:32:36.130Z,0
2023-05-03T23:34:15.892Z,0
2023-05-03T23:35:55.650Z,0
2023-05-03T23:39:15.194Z,0
2023-05-03T23:40:54.947Z,0